Mesquite, Nevada Weather observations

Data are for observation ending at time listed.
 Day   Time    Ave.   Ave.  Ave.  Vector   Max.   Stn.    Total    Solar   Ave.  
  of    of     Air    Rel.  Wind   Wind    Wind   Baro.  Precip.   Rad.    Soil  
Year   Day     Temp.  Hum.  Speed  Dir.    Gust   Pres.                    Temp. 
2016   (PST)    F      %     mph   deg.    mph     mb.     in.     W/m2     F   
------------------------------------------------------------------------------
  43   22:10   49.1    49    2.3    86      3.5   956.4    0.00       0    62.2
  43   22:20   49.0    49    2.8    98      4.0   956.2    0.00       0    62.0
  43   22:30   48.9    50    3.5    91      4.7   956.2    0.00       0    61.8
  43   22:40   47.7    52    4.3    74      5.0   956.1    0.00       0    61.6
  43   22:50   46.8    54    3.3    36      4.3   956.1    0.00       0    61.4
  43   23:00   48.3    49    2.6    18      4.4   956.1    0.00       0    61.3
  43   23:10   49.6    47    2.5   325      3.2   956.0    0.00       0    61.1
  43   23:20   50.1    46    0.9   320      2.9   955.9    0.00       0    60.9
  43   23:30   49.2    48    1.5   104      4.4   956.0    0.00       0    60.8
  43   23:40   46.8    54    2.7   108      3.7   956.0    0.00       0    60.6
  43   23:50   47.5    51    1.4   138      2.4   956.0    0.00       0    60.5
  44    0:00   47.2    53    3.5   135      5.6   955.9    0.00       0    60.3
  44    0:10   46.2    56    3.2   117      5.4   955.8    0.00       0    60.2
  44    0:20   45.5    57    1.0    90      2.3   955.8    0.00       0    60.0
  44    0:30   45.4    57    2.1    78      3.5   955.7    0.00       0    59.8
  44    0:40   45.5    55    3.4    67      4.2   955.7    0.00       0    59.7
  44    0:50   45.7    54    4.2    68      5.6   955.7    0.00       0    59.5
  44    1:00   45.0    55    4.5    62      5.3   955.8    0.00       0    59.4
  44    1:10   45.2    52    3.3    67      3.8   955.9    0.00       0    59.2
  44    1:20   46.7    46    3.3    88      3.9   956.2    0.00       0    59.1
  44    1:30   46.5    47    1.3    77      3.2   956.2    0.00       0    58.9
  44    1:40   45.3    52    1.4    88      2.5   956.3    0.00       0    58.8
  44    1:50   44.8    54    2.3    74      3.6   956.3    0.00       0    58.6
  44    2:00   45.1    52    2.2    80      3.2   956.3    0.00       0    58.5
  44    2:10   44.4    55    2.2    62      2.6   956.3    0.00       0    58.4
  44    2:20   43.5    56    2.2    42      2.7   956.2    0.00       0    58.2
  44    2:30   44.3    53    2.6    65      3.4   956.0    0.00       0    58.1
  44    2:40   44.7    52    0.6    52      2.5   955.2    0.00       0    58.0
  44    2:50   44.2    52    1.5    52      2.6   955.1    0.00       0    57.8
  44    3:00   44.2    52    1.7    27      2.3   955.6    0.00       0    57.7
  44    3:10   44.8    49    2.3   349      2.9   955.7    0.00       0    57.6
  44    3:20   45.3    47    2.9   100      4.2   955.7    0.00       0    57.5
  44    3:30   44.1    53    3.4   115      4.6   955.7    0.00       0    57.3
  44    3:40   42.2    60    3.4    87      4.5   955.7    0.00       0    57.2
  44    3:50   40.9    64    3.2    82      3.9   955.6    0.00       0    57.1
  44    4:00   42.0    61    4.1   113      5.1   955.6    0.00       0    56.9
  44    4:10   42.5    59    3.9   100      5.3   955.5    0.00       0    56.8
  44    4:20   42.2    60    2.0    93      4.2   955.3    0.00       0    56.7
  44    4:30   42.3    60    1.0   122      2.6   955.4    0.00       0    56.6
  44    4:40   42.3    59    1.1    90      2.2   955.3    0.00       0    56.5
  44    4:50   42.4    59    2.5    72      3.3   955.2    0.00       0    56.4
  44    5:00   41.9    59    2.6     9      3.3   955.2    0.00       0    56.2
  44    5:10   42.7    57    1.9   324      2.9   955.3    0.00       0    56.1
  44    5:20   43.7    54    3.4   306      4.6   955.3    0.00       0    56.0
  44    5:30   44.2    52    2.2   295      3.4   955.4    0.00       0    55.9
  44    5:40   42.1    59    0.6   224      1.9   955.6    0.00       0    55.8
  44    5:50   39.8    65    2.3   127      3.5   955.8    0.00       0    55.7
  44    6:00   38.0    70    3.3    69      4.1   955.9    0.00       0    55.6
  44    6:10   37.5    72    3.5    37      4.2   956.0    0.00       0    55.5
  44    6:20   37.8    71    3.4    28      4.0   955.9    0.00       2    55.3
  44    6:30   39.0    68    3.1    23      3.6   956.1    0.00       3    55.2
  44    6:40   40.5    63    2.6    27      3.0   956.2    0.00       5    55.1
  44    6:50   41.6    60    1.7    58      2.6   956.3    0.00       8    55.0
  44    7:00   43.2    56    1.6    88      2.6   956.4    0.00      12    54.9
  44    7:10   43.5    56    0.1   138      0.9   956.5    0.00      38    54.7
  44    7:20   43.2    59    1.3   105      2.1   956.7    0.00      87    54.6
  44    7:30   43.6    58    2.3   110      3.4   956.8    0.00     109    54.6
  44    7:40   44.5    56    2.5   106      3.8   956.9    0.00     132    54.4
  44    7:50   45.5    55    1.9    97      3.0   957.0    0.00     155    54.4
  44    8:00   47.0    52    1.8    86      2.6   956.9    0.00     179    54.3
  44    8:10   49.9    46    0.3   328      0.9   956.9    0.00     202    54.3
  44    8:20   51.7    43    0.2   316      1.6   956.9    0.00     225    54.3
  44    8:30   51.3    43    1.7   285      2.6   956.9    0.00     249    54.4
  44    8:40   51.5    42    2.0   295      2.8   956.9    0.00     271    54.5
  44    8:50   52.6    40    2.2   276      3.8   957.0    0.00     291    54.7
  44    9:00   52.9    39    2.7   274      3.7   957.1    0.00     301    54.9
  44    9:10   54.4    37    2.1   254      3.0   957.1    0.00     331    55.1
  44    9:20   55.4    35    1.4   241      2.7   957.1    0.00     350    55.4
  44    9:30   57.6    33    0.8   237      2.0   957.1    0.00     370    55.6
  44    9:40   59.9    29    2.0   173      3.7   957.0    0.00     388    55.9
  44    9:50   60.4    29    1.6   221      3.3   956.9    0.00     403    56.3
  44   10:00   58.9    30    3.0   271      5.0   956.9    0.00     417    56.6
  44   10:10   59.3    29    2.6   271      4.5   956.9    0.00     431    57.0
  44   10:20   60.0    29    2.1   306      3.9   956.9    0.00     442    57.4
  44   10:30   61.5    28    1.9   266      3.9   956.8    0.00     460    57.8
  44   10:40   63.1    26    1.3   198      5.0   956.7    0.00     467    58.3
  44   10:50   63.9    26    3.2   143      6.3   956.5    0.00     468    58.7
  44   11:00   65.1    25    4.1   138      7.1   956.1    0.00     482    59.2
  44   11:10   64.7    25    2.9   141      6.4   956.0    0.00     465    59.7
  44   11:20   65.7    24    1.7   180      4.4   955.9    0.00     518    60.1
  44   11:30   67.1    23    1.6   158      3.9   955.8    0.00     392    60.6
  44   11:40   66.9    23    0.5   159      2.8   955.4    0.00     373    61.1
  44   11:50   66.8    23    0.8   258      2.3   955.2    0.00     346    61.6
  44   12:00   66.2    23    1.3   281      2.8   955.0    0.00     380    62.0
  44   12:10   67.1    22    2.1   249      3.9   954.8    0.00     503    62.3
  44   12:20   66.8    22    3.2   257      5.5   954.7    0.00     381    62.7
  44   12:30   66.6    23    3.8   264      7.4   954.4    0.00     422    63.0
  44   12:40   67.4    22    4.3   251      7.2   954.3    0.00     370    63.4
  44   12:50   67.1    22    4.1   276      6.4   954.1    0.00     346    63.7
  44   13:00   67.6    22    2.0   277      5.0   953.9    0.00     245    64.0
  44   13:10   68.5    20    1.0   303      3.0   953.8    0.00     253    64.2
  44   13:20   69.3    19    1.9   212      3.8   953.6    0.00     296    64.4
  44   13:30   69.3    20    1.3   184      4.7   953.5    0.00     249    64.6
  44   13:40   69.4    21    2.6   217      5.3   953.4    0.00     355    64.7
  44   13:50   69.3    22    3.4   230      6.7   953.4    0.00     434    64.8
  44   14:00   69.2    22    3.3   239      7.4   953.2    0.00     432    65.0
  44   14:10   69.8    21    3.2   229      6.2   953.2    0.00     402    65.2
  44   14:20   69.0    22    3.5   232      7.2   953.1    0.00     299    65.4
  44   14:30   69.2    22    2.1   248      5.1   953.1    0.00     302    65.8
  44   14:40   70.4    21    2.3   211      5.3   953.2    0.00     356    66.1
  44   14:50   70.7    20    1.7   188      4.4   953.1    0.00     288    66.3
  44   15:00   70.4    20    1.6   264      3.7   953.1    0.00     295    66.5
  44   15:10   70.8    20    1.5   250      3.6   953.1    0.00     261    66.7
  44   15:20   70.9    20    1.4   243      4.3   953.2    0.00     232    66.9
  44   15:30   70.5    20    0.7   224      3.6   953.1    0.00     129    67.1
  44   15:40   69.8    21    2.4   250      4.5   953.1    0.00      83    67.2
  44   15:50   69.9    21    2.1   249      3.4   953.3    0.00     146    67.3
  44   16:00   70.8    20    2.5   275      4.5   953.4    0.00     163    67.3
  44   16:10   70.2    20    2.4   267      4.4   953.4    0.00      88    67.3
  44   16:20   70.3    20    1.3   253      3.4   953.4    0.00     114    67.2
  44   16:30   71.1    19    2.5   260      4.5   953.5    0.00     124    67.2
  44   16:40   70.6    20    1.8   267      5.4   953.6    0.00      81    67.1
  44   16:50   71.2    19    0.4   226      3.1   953.7    0.00      60    67.0
  44   17:00   70.0    20    1.1   190      2.6   953.7    0.00      22    66.9
  44   17:10   68.1    21    1.3   178      2.5   953.7    0.00       9    66.8
  44   17:20   67.0    22    0.1   192      1.4   953.8    0.00       5    66.7
  44   17:30   65.3    24    0.1   213      0.8   953.8    0.00       2    66.5
  44   17:40   64.0    26    0.9    46      2.2   953.9    0.00       0    66.3
  44   17:50   63.5    26    2.3    41      2.9   954.0    0.00       0    66.1
  44   18:00   62.5    27    2.3    41      2.6   954.0    0.00       0    65.9
  44   18:10   62.3    27    0.5    93      1.7   954.0    0.00       0    65.6
  44   18:20   63.6    26    2.7   157      4.3   953.9    0.00       0    65.4
  44   18:30   60.7    31    3.3    75      5.0   953.9    0.00       0    65.2
  44   18:40   57.9    35    2.6    45      4.0   954.0    0.00       0    65.0
  44   18:50   56.8    37    1.4    82      2.9   954.0    0.00       0    64.8
  44   19:00   57.1    37    0.0     0      0.0   954.1    0.00       0    64.6
  44   19:10   57.5    37    0.7    96      2.3   954.0    0.00       0    64.4
  44   19:20   58.7    34    3.2    98      5.6   953.9    0.00       0    64.1
  44   19:30   56.9    38    4.7    94      6.6   953.8    0.00       0    64.0
  44   19:40   54.4    43    3.5    93      6.1   953.7    0.00       0    63.8
  44   19:50   53.3    45    2.7    59      3.1   953.6    0.00       0    63.5
  44   20:00   54.0    44    3.1   345      5.4   953.6    0.00       0    63.3
  44   20:10   56.2    38    4.7   307      6.6   953.6    0.00       0    63.2
  44   20:20   57.5    34    2.9   292      5.3   953.7    0.00       0    63.0
  44   20:30   54.9    41    4.0   128      6.7   953.8    0.00       0    62.8
  44   20:40   50.8    48    4.9    84      5.9   954.0    0.00       0    62.6
  44   20:50   51.0    47    3.3    86      4.9   954.1    0.00       0    62.4
  44   21:00   51.8    45    4.3    76      6.0   954.2    0.00       0    62.3
  44   21:10   51.3    46    6.3    88      7.8   954.2    0.00       0    62.1
  44   21:20   49.6    50    5.1    72      6.8   954.6    0.00       0    61.9
  44   21:30   50.1    50    2.2    84      4.5   954.7    0.00       0    61.7
  44   21:40   50.4    49    2.6    84      4.8   955.0    0.00       0    61.5
  44   21:50   50.8    48    1.8    11      3.7   955.1    0.00       0    61.3
  44   22:00   53.1    40    2.0   250      5.3   955.3    0.00       0    61.2

Return to Mesquite, Nevada graphs page.


Western Regional Climate Center,wrcc@dri.edu